createdAt,value
2018-09-22T00:00:12.309Z,11.07
2018-09-22T00:02:41.438Z,11.04
2018-09-22T00:05:10.554Z,10.98
2018-09-22T00:07:39.336Z,10.95
2018-09-22T00:10:08.164Z,10.95
2018-09-22T00:12:37.318Z,10.97
2018-09-22T00:15:06.276Z,10.94
2018-09-22T00:17:35.089Z,10.96
2018-09-22T00:20:04.338Z,10.94
2018-09-22T00:22:33.436Z,10.91
2018-09-22T00:25:02.524Z,10.90
2018-09-22T00:27:32.026Z,10.91
2018-09-22T00:30:01.122Z,10.89
2018-09-22T00:32:30.570Z,10.87
2018-09-22T00:34:59.365Z,10.86
2018-09-22T00:37:28.197Z,10.87
2018-09-22T00:39:57.292Z,10.87
2018-09-22T00:42:26.393Z,10.88
2018-09-22T00:44:55.193Z,10.93
2018-09-22T00:47:24.100Z,10.94
2018-09-22T00:49:52.884Z,10.97
2018-09-22T00:52:21.760Z,10.99
2018-09-22T00:54:51.105Z,11.01
2018-09-22T00:57:20.127Z,11.03
2018-09-22T00:59:49.221Z,11.05
2018-09-22T01:02:18.845Z,11.03
2018-09-22T01:04:47.973Z,10.99
2018-09-22T01:07:17.274Z,10.95
2018-09-22T01:09:46.929Z,10.95
2018-09-22T01:12:15.848Z,10.94
2018-09-22T01:14:44.714Z,10.91
2018-09-22T01:17:13.629Z,10.91
2018-09-22T01:19:42.495Z,10.91
2018-09-22T01:22:11.688Z,10.88
2018-09-22T01:24:40.637Z,10.82
2018-09-22T01:27:09.677Z,10.81
2018-09-22T01:29:38.813Z,10.81
2018-09-22T01:32:07.800Z,10.82
2018-09-22T01:34:37.215Z,10.81
2018-09-22T01:37:06.909Z,10.86
2018-09-22T01:39:36.068Z,10.86
2018-09-22T01:42:05.120Z,10.90
2018-09-22T01:44:34.953Z,10.92
2018-09-22T01:47:04.231Z,10.92
2018-09-22T01:49:33.812Z,10.94
2018-09-22T01:52:03.057Z,10.95
2018-09-22T01:54:32.227Z,10.97
2018-09-22T01:57:01.154Z,10.98
2018-09-22T01:59:30.127Z,11.01
2018-09-22T02:01:59.573Z,11.00
2018-09-22T02:04:28.902Z,11.04
2018-09-22T02:06:58.135Z,11.06
2018-09-22T02:09:27.495Z,11.10
2018-09-22T02:11:56.340Z,11.11
2018-09-22T02:14:25.225Z,11.15
2018-09-22T02:16:54.381Z,11.17
2018-09-22T02:19:23.740Z,11.14
2018-09-22T02:21:53.034Z,11.14
2018-09-22T02:24:28.466Z,11.16
2018-09-22T02:26:57.713Z,11.18
2018-09-22T02:29:27.450Z,11.20
2018-09-22T02:31:57.013Z,11.19
2018-09-22T02:34:26.399Z,11.16
2018-09-22T02:36:55.898Z,11.15
2018-09-22T02:39:25.209Z,11.14
2018-09-22T02:41:54.776Z,11.10
2018-09-22T02:44:23.941Z,11.10
2018-09-22T02:46:53.592Z,11.06
2018-09-22T02:49:22.817Z,11.04
2018-09-22T02:51:52.413Z,11.01
2018-09-22T02:54:22.119Z,11.03
2018-09-22T02:56:51.586Z,11.05
2018-09-22T02:59:20.927Z,11.10
2018-09-22T03:01:49.802Z,11.10
2018-09-22T03:04:18.813Z,11.10
2018-09-22T03:06:47.714Z,11.09
2018-09-22T03:09:16.846Z,11.08
2018-09-22T03:11:46.507Z,11.09
2018-09-22T03:14:15.568Z,11.08
2018-09-22T03:16:44.387Z,11.09
2018-09-22T03:19:13.188Z,11.06
2018-09-22T03:21:42.279Z,11.07
2018-09-22T03:24:11.123Z,11.08
2018-09-22T03:26:40.169Z,11.08
2018-09-22T03:29:09.395Z,11.10
2018-09-22T03:31:38.503Z,11.12
2018-09-22T03:34:07.358Z,11.12
2018-09-22T03:36:36.210Z,11.14
2018-09-22T03:39:07.002Z,11.17
2018-09-22T03:41:36.265Z,11.16
2018-09-22T03:44:05.057Z,11.16
2018-09-22T03:46:34.257Z,11.14
2018-09-22T03:49:03.297Z,11.14
2018-09-22T03:51:32.206Z,11.14
2018-09-22T03:54:01.028Z,11.15
2018-09-22T03:56:30.110Z,11.15
2018-09-22T03:58:59.242Z,11.11
2018-09-22T04:01:28.317Z,11.11
2018-09-22T04:03:57.065Z,11.11
2018-09-22T04:06:26.245Z,11.11
2018-09-22T04:08:55.083Z,11.07
2018-09-22T04:11:23.933Z,11.08
2018-09-22T04:13:52.716Z,11.04
2018-09-22T04:16:21.830Z,11.03
2018-09-22T04:18:50.669Z,11.01
2018-09-22T04:21:19.479Z,11.01
2018-09-22T04:23:48.598Z,11.04
2018-09-22T04:26:17.739Z,11.05
2018-09-22T04:28:47.150Z,11.04
2018-09-22T04:31:16.597Z,11.05
2018-09-22T04:33:45.698Z,11.02
2018-09-22T04:36:15.161Z,11.02
2018-09-22T04:38:44.016Z,10.99
2018-09-22T04:41:12.896Z,10.97
2018-09-22T04:43:41.730Z,10.95
2018-09-22T04:46:10.592Z,10.93
2018-09-22T04:48:39.529Z,10.90
2018-09-22T04:51:08.619Z,10.89
2018-09-22T04:53:37.594Z,10.90
2018-09-22T04:56:06.705Z,10.91
2018-09-22T04:58:35.849Z,10.93
2018-09-22T05:01:05.010Z,10.93
2018-09-22T05:03:33.876Z,10.92
2018-09-22T05:06:02.754Z,10.96
2018-09-22T05:08:31.566Z,10.94
2018-09-22T05:11:00.399Z,10.92
2018-09-22T05:13:29.227Z,10.86
2018-09-22T05:15:58.152Z,10.85
2018-09-22T05:18:27.347Z,10.83
2018-09-22T05:20:56.558Z,10.84
2018-09-22T05:23:25.433Z,10.79
2018-09-22T05:25:54.299Z,10.76
2018-09-22T05:28:23.326Z,10.74
2018-09-22T05:30:52.317Z,10.66
2018-09-22T05:33:21.826Z,10.68
2018-09-22T05:35:50.637Z,10.64
2018-09-22T05:38:19.480Z,10.65
2018-09-22T05:40:48.328Z,10.65
2018-09-22T05:43:17.651Z,10.68
2018-09-22T05:45:46.987Z,10.73
2018-09-22T05:48:16.308Z,10.77
2018-09-22T05:50:45.234Z,10.76
2018-09-22T05:53:14.412Z,10.77
2018-09-22T05:55:43.280Z,10.81
2018-09-22T05:58:12.521Z,10.83
2018-09-22T06:00:42.004Z,10.90
2018-09-22T06:03:11.348Z,10.95
2018-09-22T06:05:40.277Z,11.02
2018-09-22T06:08:09.204Z,11.10
2018-09-22T06:10:38.126Z,11.16
2018-09-22T06:13:07.329Z,11.21
2018-09-22T06:15:36.112Z,11.24
2018-09-22T06:18:05.065Z,11.29
2018-09-22T06:20:34.354Z,11.34
2018-09-22T06:23:03.443Z,11.39
2018-09-22T06:25:32.586Z,11.43
2018-09-22T06:28:01.379Z,11.45
2018-09-22T06:30:30.542Z,11.48
2018-09-22T06:32:59.616Z,11.49
2018-09-22T06:35:28.432Z,11.50
2018-09-22T06:37:57.319Z,11.57
2018-09-22T06:40:26.133Z,11.64
2018-09-22T06:42:54.942Z,11.66
2018-09-22T06:45:24.065Z,11.67
2018-09-22T06:47:52.915Z,11.70
2018-09-22T06:50:22.134Z,11.72
2018-09-22T06:52:51.405Z,11.75
2018-09-22T06:55:20.284Z,11.77
2018-09-22T06:57:49.433Z,11.82
2018-09-22T07:00:18.547Z,11.86
2018-09-22T07:02:47.317Z,11.89
2018-09-22T07:05:16.554Z,11.92
2018-09-22T07:07:45.364Z,11.96
2018-09-22T07:10:14.215Z,11.99
2018-09-22T07:12:43.007Z,12.01
2018-09-22T07:15:12.354Z,12.00
2018-09-22T07:17:41.151Z,12.03
2018-09-22T07:20:11.048Z,12.04
2018-09-22T07:22:45.455Z,12.07
2018-09-22T07:25:15.863Z,12.11
2018-09-22T07:27:44.619Z,12.13
2018-09-22T07:30:13.777Z,12.16
2018-09-22T07:32:42.622Z,12.22
2018-09-22T07:35:11.687Z,12.24
2018-09-22T07:37:40.903Z,12.29
2018-09-22T07:40:09.789Z,12.37
2018-09-22T07:42:39.027Z,12.38
2018-09-22T07:45:07.869Z,12.43
2018-09-22T07:47:37.017Z,12.48
2018-09-22T07:50:06.127Z,12.58
2018-09-22T07:52:35.282Z,12.66
2018-09-22T07:55:04.227Z,12.74
2018-09-22T07:57:33.122Z,12.78
2018-09-22T08:00:03.089Z,12.84
2018-09-22T08:02:33.037Z,12.87
2018-09-22T08:05:01.880Z,12.96
2018-09-22T08:07:30.772Z,13.03
2018-09-22T08:09:59.914Z,13.12
2018-09-22T08:12:28.808Z,13.20
2018-09-22T08:14:57.609Z,13.29
2018-09-22T08:17:26.561Z,13.37
2018-09-22T08:19:55.679Z,13.42
2018-09-22T08:22:24.797Z,13.50
2018-09-22T08:24:53.772Z,13.54
2018-09-22T08:27:22.593Z,13.61
2018-09-22T08:29:51.987Z,13.70
2018-09-22T08:32:21.220Z,13.77
2018-09-22T08:34:50.077Z,13.84
2018-09-22T08:37:19.393Z,13.92
2018-09-22T08:39:48.492Z,13.96
2018-09-22T08:42:18.139Z,14.02
2018-09-22T08:44:47.346Z,14.08
2018-09-22T08:47:16.642Z,14.15
2018-09-22T08:49:45.987Z,14.15
2018-09-22T08:52:15.175Z,14.19
2018-09-22T08:54:44.301Z,14.24
2018-09-22T08:57:13.720Z,14.31
2018-09-22T08:59:42.610Z,14.40
2018-09-22T09:02:12.017Z,14.52
2018-09-22T09:04:41.212Z,14.59
2018-09-22T09:07:10.070Z,14.66
2018-09-22T09:09:38.942Z,14.69
2018-09-22T09:12:08.227Z,14.75
2018-09-22T09:14:40.923Z,14.77
2018-09-22T09:17:10.336Z,14.78
2018-09-22T09:19:40.389Z,14.82
2018-09-22T09:22:09.236Z,14.88
2018-09-22T09:24:38.408Z,14.92
2018-09-22T09:27:07.518Z,14.95
2018-09-22T09:29:37.100Z,15.04
2018-09-22T09:32:06.205Z,15.12
2018-09-22T09:34:35.321Z,15.14
2018-09-22T09:37:04.151Z,15.18
2018-09-22T09:39:32.974Z,15.28
2018-09-22T09:42:02.048Z,15.38
2018-09-22T09:44:31.097Z,15.41
2018-09-22T09:47:00.438Z,15.52
2018-09-22T09:49:29.485Z,15.55
2018-09-22T09:51:58.834Z,15.61
2018-09-22T09:54:28.099Z,15.63
2018-09-22T09:56:57.197Z,15.70
2018-09-22T09:59:26.148Z,15.74
2018-09-22T10:01:56.383Z,15.78
2018-09-22T10:04:25.281Z,15.85
2018-09-22T10:06:54.903Z,15.92
2018-09-22T10:09:24.232Z,16.05
2018-09-22T10:11:53.278Z,16.15
2018-09-22T10:14:22.216Z,16.23
2018-09-22T10:16:51.077Z,16.36
2018-09-22T10:19:20.675Z,16.48
2018-09-22T10:21:49.921Z,16.67
2018-09-22T10:24:19.101Z,16.75
2018-09-22T10:26:48.010Z,16.74
2018-09-22T10:29:17.691Z,16.66
2018-09-22T10:31:47.467Z,16.68
2018-09-22T10:34:16.376Z,16.72
2018-09-22T10:36:45.476Z,16.75
2018-09-22T10:39:14.388Z,16.69
2018-09-22T10:41:46.097Z,16.71
2018-09-22T10:44:15.377Z,16.70
2018-09-22T10:46:44.551Z,16.74
2018-09-22T10:49:13.375Z,16.70
2018-09-22T10:51:42.767Z,16.70
2018-09-22T10:54:12.319Z,16.67
2018-09-22T10:56:41.753Z,16.58
2018-09-22T10:59:10.924Z,16.54
2018-09-22T11:01:41.124Z,16.55
2018-09-22T11:04:10.479Z,16.51
2018-09-22T11:06:39.377Z,16.50
2018-09-22T11:09:08.450Z,16.56
2018-09-22T11:11:37.327Z,16.48
2018-09-22T11:14:06.146Z,16.37
2018-09-22T11:16:35.006Z,16.23
2018-09-22T11:19:04.495Z,16.22
2018-09-22T11:21:33.392Z,16.19
2018-09-22T11:24:02.246Z,16.09
2018-09-22T11:26:31.413Z,16.00
2018-09-22T11:29:00.609Z,15.78
2018-09-22T11:31:29.763Z,15.68
2018-09-22T11:33:58.641Z,15.67
2018-09-22T11:36:27.534Z,15.70
2018-09-22T11:38:56.688Z,15.65
2018-09-22T11:41:25.838Z,15.70
2018-09-22T11:43:54.984Z,15.72
2018-09-22T11:46:23.839Z,15.75
2018-09-22T11:48:53.848Z,15.74
2018-09-22T11:51:22.627Z,15.73
2018-09-22T11:53:51.729Z,15.68
2018-09-22T11:56:20.602Z,15.68
2018-09-22T11:58:49.720Z,15.57
2018-09-22T12:01:18.590Z,15.57
2018-09-22T12:03:47.492Z,15.44
2018-09-22T12:06:17.062Z,15.44
2018-09-22T12:08:45.850Z,15.45
2018-09-22T12:11:15.228Z,15.43
2018-09-22T12:13:44.089Z,15.44
2018-09-22T12:16:13.182Z,15.52
2018-09-22T12:18:42.969Z,15.57
2018-09-22T12:21:12.629Z,15.62
2018-09-22T12:23:42.512Z,15.65
2018-09-22T12:26:11.906Z,15.65
2018-09-22T12:28:41.788Z,15.71
2018-09-22T12:31:10.606Z,15.79
2018-09-22T12:33:40.001Z,15.81
2018-09-22T12:36:09.246Z,15.81
2018-09-22T12:38:38.196Z,15.77
2018-09-22T12:41:07.430Z,15.77
2018-09-22T12:43:36.305Z,15.76
2018-09-22T12:46:05.496Z,15.74
2018-09-22T12:48:34.290Z,15.67
2018-09-22T12:51:03.811Z,15.60
2018-09-22T12:53:33.229Z,15.47
2018-09-22T12:56:02.104Z,15.42
2018-09-22T12:58:30.905Z,15.42
2018-09-22T13:00:59.689Z,15.36
2018-09-22T13:03:28.968Z,15.36
2018-09-22T13:05:58.766Z,15.39
2018-09-22T13:08:27.646Z,15.41
2018-09-22T13:10:56.914Z,15.36
2018-09-22T13:13:25.710Z,15.37
2018-09-22T13:15:54.592Z,15.37
2018-09-22T13:18:23.697Z,15.37
2018-09-22T13:20:52.491Z,15.43
2018-09-22T13:23:22.742Z,15.46
2018-09-22T13:25:52.493Z,15.45
2018-09-22T13:28:22.078Z,15.38
2018-09-22T13:30:51.598Z,15.37
2018-09-22T13:33:21.074Z,15.31
2018-09-22T13:35:50.203Z,15.29
2018-09-22T13:38:20.118Z,15.27
2018-09-22T13:40:48.961Z,15.30
2018-09-22T13:43:18.908Z,15.29
2018-09-22T13:45:48.424Z,15.23
2018-09-22T13:48:17.269Z,15.25
2018-09-22T13:50:46.424Z,15.28
2018-09-22T13:53:15.255Z,15.26
2018-09-22T13:55:44.167Z,15.22
2018-09-22T13:58:12.972Z,15.23
2018-09-22T14:00:42.159Z,15.23
2018-09-22T14:03:11.520Z,15.22
2018-09-22T14:05:40.702Z,15.18
2018-09-22T14:08:09.793Z,15.20
2018-09-22T14:10:38.807Z,15.18
2018-09-22T14:13:07.546Z,15.17
2018-09-22T14:15:36.376Z,15.15
2018-09-22T14:18:05.900Z,15.13
2018-09-22T14:20:35.144Z,15.10
2018-09-22T14:23:04.529Z,15.05
2018-09-22T14:25:33.389Z,14.97
2018-09-22T14:28:02.588Z,14.84
2018-09-22T14:30:31.429Z,14.81
2018-09-22T14:33:00.663Z,14.76
2018-09-22T14:35:29.744Z,14.63
2018-09-22T14:37:58.941Z,14.59
2018-09-22T14:40:27.835Z,14.52
2018-09-22T14:42:56.684Z,14.49
2018-09-22T14:45:25.938Z,14.46
2018-09-22T14:47:54.727Z,14.42
2018-09-22T14:50:24.054Z,14.38
2018-09-22T14:52:53.101Z,14.35
2018-09-22T14:55:22.490Z,14.34
2018-09-22T14:57:51.301Z,14.36
2018-09-22T15:00:20.232Z,14.34
2018-09-22T15:02:49.436Z,14.34
2018-09-22T15:05:19.184Z,14.34
2018-09-22T15:07:48.912Z,14.33
2018-09-22T15:10:17.813Z,14.30
2018-09-22T15:12:46.711Z,14.22
2018-09-22T15:15:15.641Z,14.09
2018-09-22T15:17:44.477Z,13.99
2018-09-22T15:20:13.932Z,13.91
2018-09-22T15:22:43.461Z,13.87
2018-09-22T15:25:12.291Z,13.85
2018-09-22T15:27:41.365Z,13.68
2018-09-22T15:30:10.212Z,13.69
2018-09-22T15:32:38.978Z,13.62
2018-09-22T15:35:07.954Z,13.46
2018-09-22T15:37:37.738Z,13.37
2018-09-22T15:40:08.142Z,13.35
2018-09-22T15:42:37.463Z,13.26
2018-09-22T15:45:07.122Z,13.21
2018-09-22T15:47:36.322Z,13.14
2018-09-22T15:50:05.565Z,13.09
2018-09-22T15:52:35.017Z,13.08
2018-09-22T15:55:03.909Z,13.07
2018-09-22T15:57:33.076Z,13.03
2018-09-22T16:00:02.178Z,12.94
2018-09-22T16:02:31.227Z,12.93
2018-09-22T16:05:00.392Z,12.89
2018-09-22T16:07:29.783Z,12.88
2018-09-22T16:09:58.987Z,12.86
2018-09-22T16:12:27.842Z,12.82
2018-09-22T16:14:57.265Z,12.84
2018-09-22T16:17:26.620Z,12.81
2018-09-22T16:19:56.403Z,12.82
2018-09-22T16:22:25.301Z,12.82
2018-09-22T16:24:54.136Z,12.78
2018-09-22T16:27:23.356Z,12.72
2018-09-22T16:29:52.208Z,12.76
2018-09-22T16:32:21.080Z,12.77
2018-09-22T16:34:50.100Z,12.75
2018-09-22T16:37:19.685Z,12.78
2018-09-22T16:39:48.554Z,12.79
2018-09-22T16:42:17.880Z,12.80
2018-09-22T16:44:46.957Z,12.72
2018-09-22T16:47:15.743Z,12.68
2018-09-22T16:49:44.646Z,12.72
2018-09-22T16:52:14.800Z,12.71
2018-09-22T16:54:43.919Z,12.69
2018-09-22T16:57:13.437Z,12.71
2018-09-22T16:59:42.530Z,12.71
2018-09-22T17:02:11.373Z,12.77
2018-09-22T17:04:40.707Z,12.72
2018-09-22T17:07:09.602Z,12.69
2018-09-22T17:09:38.787Z,12.68
2018-09-22T17:12:07.602Z,12.71
2018-09-22T17:14:36.692Z,12.67
2018-09-22T17:17:06.061Z,12.67
2018-09-22T17:19:35.155Z,12.64
2018-09-22T17:22:04.465Z,12.59
2018-09-22T17:24:33.311Z,12.58
2018-09-22T17:27:02.441Z,12.55
2018-09-22T17:29:31.782Z,12.52
2018-09-22T17:32:00.776Z,12.49
2018-09-22T17:34:30.220Z,12.47
2018-09-22T17:36:59.050Z,12.46
2018-09-22T17:39:27.957Z,12.50
2018-09-22T17:41:56.781Z,12.51
2018-09-22T17:44:25.726Z,12.52
2018-09-22T17:46:55.024Z,12.49
2018-09-22T17:49:23.859Z,12.45
2018-09-22T17:51:52.616Z,12.44
2018-09-22T17:54:21.742Z,12.45
2018-09-22T17:56:51.020Z,12.47
2018-09-22T17:59:19.935Z,12.47
2018-09-22T18:01:49.009Z,12.46
2018-09-22T18:04:18.126Z,12.40
2018-09-22T18:06:47.624Z,12.36
2018-09-22T18:09:16.743Z,12.34
2018-09-22T18:11:46.173Z,12.35
2018-09-22T18:14:15.502Z,12.37
2018-09-22T18:16:44.405Z,12.32
2018-09-22T18:19:13.253Z,12.27
2018-09-22T18:21:42.680Z,12.26
2018-09-22T18:24:11.793Z,12.23
2018-09-22T18:26:41.388Z,12.25
2018-09-22T18:29:10.873Z,12.25
2018-09-22T18:31:40.107Z,12.28
2018-09-22T18:34:09.829Z,12.22
2018-09-22T18:36:41.827Z,12.21
2018-09-22T18:39:10.948Z,12.21
2018-09-22T18:41:40.667Z,12.23
2018-09-22T18:44:09.577Z,12.19
2018-09-22T18:46:38.554Z,12.19
2018-09-22T18:49:07.616Z,12.19
2018-09-22T18:51:36.861Z,12.18
2018-09-22T18:54:06.245Z,12.15
2018-09-22T18:56:35.196Z,12.14
2018-09-22T18:59:04.079Z,12.12
2018-09-22T19:01:32.940Z,12.10
2018-09-22T19:04:01.793Z,12.06
2018-09-22T19:06:30.803Z,12.08
2018-09-22T19:08:59.989Z,12.06
2018-09-22T19:11:29.720Z,12.04
2018-09-22T19:14:04.965Z,12.02
2018-09-22T19:16:37.540Z,12.00
2018-09-22T19:19:10.940Z,11.97
2018-09-22T19:21:46.856Z,11.97
2018-09-22T19:25:18.502Z,11.99
2018-09-22T19:27:50.617Z,11.93
2018-09-22T19:30:24.596Z,11.92
2018-09-22T19:32:59.232Z,11.92
2018-09-22T19:35:34.816Z,11.94
2018-09-22T19:38:09.322Z,11.92
2018-09-22T19:41:18.614Z,11.95
2018-09-22T19:43:59.028Z,11.97
2018-09-22T19:46:32.708Z,11.97
2018-09-22T19:49:14.378Z,11.95
2018-09-22T19:51:47.017Z,11.92
2018-09-22T19:54:17.138Z,11.87
2018-09-22T19:56:46.514Z,11.88
2018-09-22T19:59:15.322Z,11.87
2018-09-22T20:01:44.526Z,11.86
2018-09-22T20:04:13.346Z,11.85
2018-09-22T20:06:42.829Z,11.86
2018-09-22T20:09:12.114Z,11.86
2018-09-22T20:11:40.931Z,11.87
2018-09-22T20:14:10.710Z,11.89
2018-09-22T20:16:39.833Z,11.85
2018-09-22T20:19:08.667Z,11.88
2018-09-22T20:21:37.527Z,11.88
2018-09-22T20:24:07.072Z,11.89
2018-09-22T20:26:35.872Z,11.87
2018-09-22T20:29:05.180Z,11.85
2018-09-22T20:31:34.469Z,11.86
2018-09-22T20:34:04.212Z,11.84
2018-09-22T20:36:34.188Z,11.87
2018-09-22T20:39:05.118Z,11.85
2018-09-22T20:41:35.440Z,11.87
2018-09-22T20:44:06.109Z,11.86
2018-09-22T20:46:36.250Z,11.88
2018-09-22T20:49:06.817Z,11.86
2018-09-22T20:51:36.676Z,11.86
2018-09-22T20:54:05.972Z,11.87
2018-09-22T20:56:35.427Z,11.85
2018-09-22T20:59:04.578Z,11.84
2018-09-22T21:01:33.441Z,11.86
2018-09-22T21:04:02.720Z,11.87
2018-09-22T21:06:31.844Z,11.89
2018-09-22T21:09:00.706Z,11.90
2018-09-22T21:11:29.795Z,11.92
2018-09-22T21:13:58.861Z,11.91
2018-09-22T21:16:27.683Z,11.92
2018-09-22T21:18:57.105Z,11.91
2018-09-22T21:21:26.449Z,11.90
2018-09-22T21:23:55.479Z,11.94
2018-09-22T21:26:24.501Z,11.94
2018-09-22T21:28:53.656Z,11.93
2018-09-22T21:31:22.457Z,11.93
2018-09-22T21:33:51.967Z,11.94
2018-09-22T21:36:20.762Z,11.94
2018-09-22T21:38:49.878Z,11.95
2018-09-22T21:41:18.806Z,11.95
2018-09-22T21:43:47.648Z,11.95
2018-09-22T21:46:16.491Z,11.95
2018-09-22T21:48:45.340Z,11.94
2018-09-22T21:51:14.496Z,11.91
2018-09-22T21:53:43.600Z,11.91
2018-09-22T21:56:12.717Z,11.90
2018-09-22T21:58:41.593Z,11.91
2018-09-22T22:01:15.603Z,11.90
2018-09-22T22:03:44.384Z,11.90
2018-09-22T22:06:13.443Z,11.91
2018-09-22T22:08:42.669Z,11.91
2018-09-22T22:11:11.874Z,11.92
2018-09-22T22:13:41.570Z,11.92
2018-09-22T22:16:10.507Z,11.93
2018-09-22T22:18:39.408Z,11.90
2018-09-22T22:21:08.847Z,11.90
2018-09-22T22:23:37.789Z,11.88
2018-09-22T22:26:06.823Z,11.90
2018-09-22T22:28:35.997Z,11.93
2018-09-22T22:31:05.170Z,11.95
2018-09-22T22:33:34.054Z,11.96
2018-09-22T22:36:20.093Z,11.96
2018-09-22T22:38:49.281Z,11.94
2018-09-22T22:41:18.505Z,11.95
2018-09-22T22:43:47.967Z,11.95
2018-09-22T22:46:17.868Z,11.95
2018-09-22T22:48:48.344Z,11.95
2018-09-22T22:51:18.352Z,11.95
2018-09-22T22:53:48.670Z,11.93
2018-09-22T22:56:18.831Z,11.94
2018-09-22T22:58:48.578Z,11.96
2018-09-22T23:01:18.737Z,11.95
2018-09-22T23:03:49.104Z,11.95
2018-09-22T23:06:19.622Z,11.96
2018-09-22T23:08:49.801Z,11.95
2018-09-22T23:11:18.836Z,11.92
2018-09-22T23:13:47.724Z,11.90
2018-09-22T23:16:16.827Z,11.90
2018-09-22T23:18:45.680Z,11.89
2018-09-22T23:21:14.850Z,11.87
2018-09-22T23:23:43.681Z,11.87
2018-09-22T23:26:13.450Z,11.87
2018-09-22T23:28:42.318Z,11.86
2018-09-22T23:31:11.525Z,11.87
2018-09-22T23:33:40.602Z,11.85
2018-09-22T23:36:09.469Z,11.83
2018-09-22T23:38:38.380Z,11.86
2018-09-22T23:41:07.460Z,11.86
2018-09-22T23:43:37.336Z,11.85
2018-09-22T23:46:06.703Z,11.83
2018-09-22T23:48:35.797Z,11.82
2018-09-22T23:51:05.251Z,11.80
2018-09-22T23:53:34.054Z,11.80
2018-09-22T23:56:03.131Z,11.82
2018-09-22T23:58:32.309Z,11.82
